Time;durP1;ratioP1;P1;durP2;ratioP2;P2;SDS_P1;SDS_P2;PMS_P1;PMS_P2;Temp;Humidity;BMP_temperature;BMP_pressure;BME280_temperature;BME280_humidity;BME280_pressure;Samples;Min_cycle;Max_cycle;Signal;HPM_P1;HPM_P2
2022/05/06 00:01:56;;;;;;;44.80;24.40;;;11.80;99.90;;;;;;5033514;28;20072;-73
2022/05/06 00:04:23;;;;;;;47.40;25.00;;;11.80;99.90;;;;;;5032477;28;20043;-74
2022/05/06 00:06:48;;;;;;;49.15;24.40;;;11.80;99.90;;;;;;5035095;28;20083;-74
2022/05/06 00:09:14;;;;;;;46.88;23.40;;;11.80;99.90;;;;;;5035666;28;20408;-73
2022/05/06 00:11:39;;;;;;;44.22;23.55;;;11.80;99.90;;;;;;5035657;28;20040;-74
2022/05/06 00:14:05;;;;;;;48.92;23.90;;;11.70;99.90;;;;;;5034333;28;20041;-73
2022/05/06 00:16:30;;;;;;;46.67;23.73;;;11.70;99.90;;;;;;5034548;28;20033;-74
2022/05/06 00:18:56;;;;;;;46.97;24.67;;;11.70;99.90;;;;;;5034448;28;20075;-73
2022/05/06 00:21:22;;;;;;;46.15;23.98;;;11.70;99.90;;;;;;5034357;28;20075;-74
2022/05/06 00:23:48;;;;;;;49.95;23.60;;;11.70;99.90;;;;;;5016840;28;20073;-73
2022/05/06 00:26:13;;;;;;;47.00;23.45;;;11.70;99.90;;;;;;5034136;28;20064;-72
2022/05/06 00:28:39;;;;;;;46.67;23.17;;;11.80;99.90;;;;;;5033879;28;20383;-73
2022/05/06 00:31:06;;;;;;;47.15;24.50;;;11.80;99.90;;;;;;5034436;28;20029;-74
2022/05/06 00:33:32;;;;;;;45.17;23.08;;;11.80;99.90;;;;;;5033622;28;20056;-72
2022/05/06 00:36:00;;;;;;;42.85;21.20;;;11.80;99.90;;;;;;5034595;28;20047;-73
2022/05/06 00:38:25;;;;;;;44.58;23.08;;;11.70;99.90;;;;;;5034572;28;20057;-73
2022/05/06 00:40:52;;;;;;;46.28;23.13;;;11.70;99.90;;;;;;5034389;28;20036;-73
2022/05/06 00:43:19;;;;;;;44.72;21.15;;;11.70;99.90;;;;;;5034361;28;20100;-73
2022/05/06 00:45:52;;;;;;;41.88;22.02;;;11.70;99.90;;;;;;5016083;28;20463;-73
2022/05/06 00:48:18;;;;;;;41.30;20.65;;;11.70;99.90;;;;;;5034590;28;20049;-74
2022/05/06 00:50:45;;;;;;;51.30;23.52;;;11.70;99.90;;;;;;5034185;28;20033;-74
2022/05/06 00:53:12;;;;;;;50.97;24.20;;;11.60;99.90;;;;;;5034977;28;20164;-74
2022/05/06 00:55:38;;;;;;;45.88;22.25;;;11.60;99.90;;;;;;5034245;28;20029;-74
2022/05/06 00:58:03;;;;;;;44.55;20.88;;;11.60;99.90;;;;;;5034623;28;20032;-74
2022/05/06 01:00:29;;;;;;;42.03;20.20;;;11.60;99.90;;;;;;5034249;28;20081;-72
2022/05/06 01:02:55;;;;;;;47.22;18.33;;;11.60;99.90;;;;;;5034309;28;20080;-73
2022/05/06 01:05:22;;;;;;;42.35;18.40;;;11.50;99.90;;;;;;5033668;28;20448;-74
2022/05/06 01:07:49;;;;;;;43.67;18.67;;;11.50;99.90;;;;;;5016336;28;20021;-73
2022/05/06 01:10:17;;;;;;;44.22;17.42;;;11.50;99.90;;;;;;5033828;28;20009;-73
2022/05/06 01:15:26;;;;;;;42.05;16.20;;;11.60;99.90;;;;;;5053544;28;20052;-79
2022/05/06 01:17:53;;;;;;;82.28;15.82;;;11.40;99.90;;;;;;5057087;28;20060;-79
2022/05/06 01:20:21;;;;;;;41.38;13.10;;;11.40;99.90;;;;;;5057744;28;20480;-78
2022/05/06 01:22:49;;;;;;;28.85;13.35;;;11.30;99.90;;;;;;5057768;28;20079;-78
2022/05/06 01:25:15;;;;;;;28.60;12.60;;;11.30;99.90;;;;;;5038087;28;20025;-79
2022/05/06 01:27:55;;;;;;;26.08;12.20;;;11.30;99.90;;;;;;5055569;28;20098;-79
2022/05/06 01:30:48;;;;;;;24.93;11.53;;;11.30;99.90;;;;;;5037990;28;20033;-79
2022/05/06 01:33:19;;;;;;;27.40;11.57;;;11.30;99.90;;;;;;5056299;28;20456;-79
2022/05/06 01:35:52;;;;;;;48.90;11.10;;;11.20;99.90;;;;;;5056705;28;20083;-79
2022/05/06 01:38:56;;;;;;;21.83;11.10;;;11.20;99.90;;;;;;5056068;28;20021;-79
2022/05/06 01:41:25;;;;;;;24.58;10.18;;;11.20;99.90;;;;;;5055082;28;20461;-79
2022/05/06 01:43:59;;;;;;;25.02;9.07;;;11.10;99.90;;;;;;5054999;28;20036;-79
2022/05/06 01:46:27;;;;;;;20.83;10.35;;;11.10;99.90;;;;;;5054612;28;20033;-79
2022/05/06 01:48:55;;;;;;;23.63;10.35;;;10.90;99.90;;;;;;5054013;28;20104;-78
2022/05/06 01:51:22;;;;;;;20.77;10.18;;;11.00;99.90;;;;;;5035718;28;20316;-79
2022/05/06 01:53:49;;;;;;;20.67;10.55;;;11.10;99.90;;;;;;5054727;28;20108;-79
2022/05/06 01:56:18;;;;;;;30.23;11.50;;;11.10;99.90;;;;;;5054309;28;20472;-79
2022/05/06 01:58:44;;;;;;;30.55;11.15;;;11.10;99.90;;;;;;5036928;28;20028;-79
2022/05/06 02:01:11;;;;;;;33.58;11.57;;;11.00;99.90;;;;;;5054909;28;20029;-79
2022/05/06 02:06:21;;;;;;;48.05;11.43;;;11.00;99.90;;;;;;5054427;28;20043;-78
2022/05/06 02:08:47;;;;;;;25.70;11.05;;;10.80;99.90;;;;;;5036480;28;20029;-79
2022/05/06 02:11:13;;;;;;;26.58;11.05;;;10.90;99.90;;;;;;5054349;28;20017;-79
2022/05/06 02:13:39;;;;;;;53.90;10.23;;;11.00;99.90;;;;;;5054326;28;20128;-79
2022/05/06 02:16:05;;;;;;;22.92;9.80;;;10.90;99.90;;;;;;5036294;28;20428;-78
2022/05/06 02:18:30;;;;;;;30.40;10.40;;;10.90;99.90;;;;;;5053862;28;20041;-79
2022/05/06 02:20:59;;;;;;;33.95;9.82;;;10.90;99.90;;;;;;5054487;28;20025;-79
2022/05/06 02:23:26;;;;;;;23.45;10.52;;;11.00;99.90;;;;;;5035814;28;20030;-79
2022/05/06 02:25:52;;;;;;;20.92;9.95;;;11.00;99.90;;;;;;5033733;28;20505;-79
2022/05/06 02:28:18;;;;;;;27.45;9.60;;;11.00;99.90;;;;;;5034080;28;20487;-79
2022/05/06 02:33:28;;;;;;;20.25;9.15;;;11.00;99.90;;;;;;5034020;28;20087;-79
2022/05/06 02:35:54;;;;;;;20.67;9.13;;;11.10;99.90;;;;;;5033963;28;20489;-79
2022/05/06 02:38:21;;;;;;;20.77;9.18;;;11.00;99.90;;;;;;5034477;28;20030;-79
2022/05/06 02:40:48;;;;;;;23.45;8.23;;;11.10;99.90;;;;;;5034239;28;20021;-79
2022/05/06 02:43:13;;;;;;;36.30;7.97;;;10.90;99.90;;;;;;5033919;28;20026;-79
2022/05/06 02:45:39;;;;;;;22.48;8.50;;;10.90;99.90;;;;;;5033895;28;20025;-79
2022/05/06 02:48:05;;;;;;;20.55;7.43;;;10.90;99.90;;;;;;5033998;28;20072;-79
2022/05/06 02:50:31;;;;;;;17.40;7.47;;;10.90;99.90;;;;;;5016281;28;20026;-78
2022/05/06 02:52:56;;;;;;;13.80;8.07;;;10.90;99.90;;;;;;5034016;28;20036;-79
2022/05/06 02:55:23;;;;;;;18.83;7.78;;;10.90;99.90;;;;;;5033798;28;20045;-79
2022/05/06 02:57:52;;;;;;;14.68;7.72;;;10.90;99.90;;;;;;5033568;28;20104;-79
2022/05/06 03:00:18;;;;;;;20.80;8.10;;;10.90;99.90;;;;;;5033536;28;20018;-79
2022/05/06 03:02:44;;;;;;;16.80;7.07;;;10.80;99.90;;;;;;5033645;28;20033;-79
2022/05/06 03:05:10;;;;;;;15.95;7.43;;;10.90;99.90;;;;;;5033377;28;20114;-79
2022/05/06 03:07:36;;;;;;;13.27;7.03;;;10.80;99.90;;;;;;5033013;28;20041;-79
2022/05/06 03:10:03;;;;;;;12.55;6.15;;;10.90;99.90;;;;;;5015382;28;20014;-79
2022/05/06 03:12:29;;;;;;;10.85;6.13;;;10.90;99.90;;;;;;5033394;28;20072;-79
2022/05/06 03:14:55;;;;;;;15.55;6.97;;;10.80;99.90;;;;;;5033439;28;20136;-78
2022/05/06 03:17:20;;;;;;;13.07;6.90;;;10.90;99.90;;;;;;5033068;28;20100;-79
2022/05/06 03:19:46;;;;;;;14.10;6.10;;;10.80;99.90;;;;;;5032822;28;20117;-79
2022/05/06 03:22:12;;;;;;;13.90;7.07;;;10.80;99.90;;;;;;5033414;28;20163;-78
2022/05/06 03:24:38;;;;;;;16.23;6.10;;;10.80;99.90;;;;;;5034253;28;20021;-79
2022/05/06 03:27:04;;;;;;;12.55;6.30;;;10.80;99.90;;;;;;5051682;28;20047;-79
2022/05/06 03:29:30;;;;;;;16.58;6.97;;;10.80;99.90;;;;;;5053393;28;20368;-79
2022/05/06 03:31:57;;;;;;;15.70;6.80;;;10.80;99.90;;;;;;5053536;28;20032;-79
2022/05/06 03:34:23;;;;;;;14.88;7.15;;;10.80;99.90;;;;;;5052322;28;20021;-79
2022/05/06 03:36:49;;;;;;;17.35;7.43;;;10.70;99.90;;;;;;5054122;28;20028;-79
2022/05/06 03:39:14;;;;;;;11.98;6.80;;;10.90;99.90;;;;;;5054735;28;20021;-79
2022/05/06 03:41:40;;;;;;;15.20;6.45;;;10.80;99.90;;;;;;5052796;28;20031;-79
2022/05/06 03:44:08;;;;;;;15.05;6.57;;;10.80;99.90;;;;;;5053518;28;20033;-79
2022/05/06 03:46:34;;;;;;;14.77;7.07;;;10.80;99.90;;;;;;5051803;28;20101;-79
2022/05/06 03:49:01;;;;;;;11.13;5.97;;;10.80;99.90;;;;;;5053429;28;20052;-79
2022/05/06 03:51:28;;;;;;;21.58;7.30;;;10.80;99.90;;;;;;5053471;28;20028;-79
2022/05/06 03:53:56;;;;;;;12.77;6.43;;;10.70;99.90;;;;;;5053408;28;20136;-79
2022/05/06 03:56:23;;;;;;;12.32;6.55;;;10.80;99.90;;;;;;5053655;28;20036;-79
2022/05/06 03:58:49;;;;;;;11.35;6.15;;;10.80;99.90;;;;;;5054038;28;20020;-79
2022/05/06 04:01:19;;;;;;;12.88;6.95;;;10.80;99.90;;;;;;5038035;28;20029;-79
2022/05/06 04:03:48;;;;;;;14.75;6.50;;;10.80;99.90;;;;;;5033872;28;20028;-79
2022/05/06 04:06:14;;;;;;;10.63;5.57;;;10.90;99.90;;;;;;5033763;28;20084;-79
2022/05/06 04:08:41;;;;;;;9.07;5.32;;;10.70;99.90;;;;;;5034304;28;20108;-79
2022/05/06 04:11:11;;;;;;;11.40;5.85;;;10.70;99.90;;;;;;5034325;28;20075;-79
2022/05/06 04:13:37;;;;;;;11.07;5.83;;;10.80;99.90;;;;;;5033572;28;20053;-79
2022/05/06 04:16:03;;;;;;;10.43;6.47;;;10.80;99.90;;;;;;5033432;28;20026;-79
2022/05/06 04:18:28;;;;;;;13.13;7.28;;;10.80;99.90;;;;;;5032392;28;20497;-79
2022/05/06 04:23:39;;;;;;;12.63;6.47;;;10.80;99.90;;;;;;5033374;28;20028;-79
2022/05/06 04:26:06;;;;;;;13.05;7.55;;;10.80;99.90;;;;;;5046037;28;20029;-79
2022/05/06 04:28:32;;;;;;;12.48;7.50;;;10.90;99.90;;;;;;5053044;28;20017;-79
2022/05/06 04:30:58;;;;;;;17.83;8.60;;;10.80;99.90;;;;;;5053897;28;20048;-79
2022/05/06 04:33:25;;;;;;;14.50;7.50;;;11.00;99.90;;;;;;5052623;28;20503;-79
2022/05/06 04:35:53;;;;;;;11.80;6.75;;;11.00;99.90;;;;;;5052732;28;20535;-79
2022/05/06 04:38:19;;;;;;;12.95;7.63;;;11.00;99.90;;;;;;5053952;28;20017;-79
2022/05/06 04:40:45;;;;;;;14.88;8.30;;;11.10;99.90;;;;;;5053471;28;20028;-79
2022/05/06 04:43:12;;;;;;;16.40;8.20;;;11.20;99.90;;;;;;5052351;28;20029;-80
2022/05/06 04:45:41;;;;;;;14.18;8.43;;;11.10;99.90;;;;;;5052350;28;20028;-80
2022/05/06 04:48:08;;;;;;;15.52;8.70;;;11.10;99.90;;;;;;5052172;28;20589;-79
2022/05/06 04:50:35;;;;;;;14.90;8.45;;;11.10;99.90;;;;;;5034251;28;20025;-79
2022/05/06 04:53:01;;;;;;;18.30;8.38;;;11.20;99.90;;;;;;5052454;28;20033;-79
2022/05/06 04:55:26;;;;;;;14.23;9.05;;;11.20;99.90;;;;;;5052201;28;20035;-79
2022/05/06 04:57:52;;;;;;;16.17;9.20;;;11.20;99.90;;;;;;5052337;28;20017;-79
2022/05/06 05:00:19;;;;;;;15.27;9.57;;;11.30;99.90;;;;;;5052411;28;20032;-79
2022/05/06 05:02:44;;;;;;;16.77;9.57;;;11.40;99.90;;;;;;5053163;28;20029;-79
2022/05/06 05:05:10;;;;;;;19.00;9.70;;;11.40;99.90;;;;;;5053212;28;20036;-79
2022/05/06 05:07:36;;;;;;;17.15;9.27;;;11.40;99.90;;;;;;5053087;28;20032;-79
2022/05/06 05:10:02;;;;;;;16.48;9.52;;;11.50;99.90;;;;;;5052954;28;20435;-79
2022/05/06 05:12:28;;;;;;;16.65;9.55;;;11.60;99.90;;;;;;5052353;28;20055;-79
2022/05/06 05:14:54;;;;;;;17.85;11.02;;;11.80;99.90;;;;;;5052475;28;20052;-80
2022/05/06 05:17:20;;;;;;;15.35;9.32;;;11.90;99.90;;;;;;5051747;28;20030;-80
2022/05/06 05:19:45;;;;;;;16.33;9.82;;;11.90;99.90;;;;;;5051463;28;20086;-79
2022/05/06 05:22:12;;;;;;;18.33;9.68;;;12.00;99.90;;;;;;5052598;28;20132;-80
2022/05/06 05:24:38;;;;;;;14.38;9.73;;;12.10;99.90;;;;;;5051233;28;20060;-80
2022/05/06 05:27:04;;;;;;;14.38;9.13;;;12.10;99.90;;;;;;5031842;28;20033;-79
2022/05/06 05:29:29;;;;;;;18.10;9.02;;;12.10;99.90;;;;;;5031730;28;20078;-79
2022/05/06 05:31:55;;;;;;;14.10;9.30;;;12.20;99.90;;;;;;5032046;28;20045;-80
2022/05/06 05:34:21;;;;;;;14.30;9.40;;;12.10;99.90;;;;;;5031510;28;20022;-79
2022/05/06 05:36:46;;;;;;;15.50;9.32;;;12.20;99.90;;;;;;5032303;28;20123;-79
2022/05/06 05:39:12;;;;;;;13.65;9.55;;;12.30;99.90;;;;;;5032515;28;20021;-79
2022/05/06 05:41:38;;;;;;;15.48;9.38;;;12.50;99.90;;;;;;5031014;28;20044;-79
2022/05/06 05:49:33;;;;;;;15.15;9.60;;;12.40;96.40;;;;;;5031956;28;20559;-82
2022/05/06 05:51:58;;;;;;;15.95;10.25;;;12.50;98.80;;;;;;5031858;28;20022;-79
2022/05/06 05:54:24;;;;;;;16.08;10.07;;;12.50;99.90;;;;;;5031724;28;20044;-80
2022/05/06 05:56:50;;;;;;;14.93;9.18;;;12.40;99.90;;;;;;5032617;28;20047;-80
2022/05/06 05:59:15;;;;;;;15.25;9.35;;;12.50;94.20;;;;;;5035233;28;20029;-81
2022/05/06 06:01:41;;;;;;;15.63;9.00;;;12.40;99.90;;;;;;5035094;28;20476;-80
2022/05/06 06:04:07;;;;;;;16.85;9.10;;;12.40;98.90;;;;;;5034188;28;20601;-80
2022/05/06 06:06:32;;;;;;;17.02;9.15;;;12.50;99.90;;;;;;5034912;28;20108;-80
2022/05/06 06:08:58;;;;;;;15.30;8.98;;;12.60;99.90;;;;;;5034848;28;20068;-80
2022/05/06 06:11:23;;;;;;;18.80;9.35;;;12.70;92.20;;;;;;5034941;28;20022;-80
2022/05/06 06:13:49;;;;;;;15.25;8.65;;;12.90;71.90;;;;;;5035570;28;20465;-80
2022/05/06 06:16:16;;;;;;;12.48;7.57;;;13.00;54.00;;;;;;5035106;28;20032;-80
2022/05/06 06:18:42;;;;;;;9.55;6.53;;;13.20;39.30;;;;;;5035765;28;20022;-80
2022/05/06 06:21:07;;;;;;;9.73;6.75;;;13.00;30.10;;;;;;5037399;28;20026;-80
2022/05/06 06:23:33;;;;;;;6.78;4.80;;;13.20;71.20;;;;;;5035083;28;20034;-80
2022/05/06 06:25:59;;;;;;;5.90;4.70;;;13.50;1.00;;;;;;5047860;28;20021;-80
2022/05/06 06:28:24;;;;;;;5.95;4.45;;;13.90;1.00;;;;;;5053346;28;20029;-80
2022/05/06 06:30:50;;;;;;;5.07;4.32;;;14.40;1.00;;;;;;5054437;28;20137;-80
2022/05/06 06:33:16;;;;;;;6.80;4.18;;;15.40;1.00;;;;;;5036583;28;20108;-80
2022/05/06 06:35:42;;;;;;;4.78;4.28;;;15.30;1.00;;;;;;5054113;28;20025;-80
2022/05/06 06:38:07;;;;;;;4.72;4.05;;;15.20;1.00;;;;;;5054532;28;20048;-80
2022/05/06 06:40:34;;;;;;;5.57;4.40;;;14.90;1.00;;;;;;5055002;28;20025;-80
2022/05/06 06:43:02;;;;;;;5.45;4.47;;;14.90;1.00;;;;;;5036191;28;20025;-80
2022/05/06 06:45:27;;;;;;;5.50;4.95;;;14.80;1.00;;;;;;5052487;28;20100;-81
2022/05/06 06:47:53;;;;;;;5.05;4.55;;;15.10;1.00;;;;;;5053265;28;20064;-80
2022/05/06 06:50:19;;;;;;;6.43;5.00;;;15.30;1.00;;;;;;5053640;28;20472;-80
2022/05/06 06:52:44;;;;;;;6.15;4.82;;;15.50;1.00;;;;;;5054344;28;20060;-80
2022/05/06 06:55:10;;;;;;;6.95;5.05;;;16.00;99.90;;;;;;5054826;28;20047;-80
2022/05/06 06:57:36;;;;;;;6.53;5.50;;;15.60;99.90;;;;;;5054743;28;20056;-80
2022/05/06 07:00:02;;;;;;;6.07;5.13;;;15.80;99.90;;;;;;5048543;28;20037;-81
2022/05/06 07:02:28;;;;;;;7.07;4.85;;;23.00;99.90;;;;;;5035073;28;20041;-80
2022/05/06 07:04:53;;;;;;;5.43;4.57;;;27.10;99.90;;;;;;5034059;28;20385;-81
2022/05/06 07:12:48;;;;;;;5.10;4.07;;;25.70;99.90;;;;;;5033360;28;20125;-81
2022/05/06 07:15:13;;;;;;;4.65;3.80;;;25.40;99.90;;;;;;5032910;28;20129;-81
2022/05/06 07:17:39;;;;;;;4.25;3.53;;;24.80;99.90;;;;;;5034354;28;20413;-81
2022/05/06 07:20:05;;;;;;;4.22;3.83;;;23.60;99.90;;;;;;5031829;28;20028;-81
2022/05/06 07:22:30;;;;;;;5.40;4.07;;;21.80;99.90;;;;;;5032923;28;20026;-81
2022/05/06 07:24:56;;;;;;;5.53;4.53;;;21.40;99.90;;;;;;5036967;28;20040;-81
2022/05/06 07:27:23;;;;;;;4.65;3.88;;;21.40;99.90;;;;;;5051667;28;20463;-81
2022/05/06 07:29:49;;;;;;;4.38;3.80;;;21.60;99.90;;;;;;5053128;28;20419;-81
2022/05/06 07:32:14;;;;;;;4.43;3.90;;;21.00;99.90;;;;;;5052705;28;20473;-81
2022/05/06 07:34:40;;;;;;;4.85;3.70;;;21.50;99.90;;;;;;5053349;28;20104;-81
2022/05/06 07:37:05;;;;;;;4.88;4.13;;;22.30;99.90;;;;;;5053150;28;20057;-81
2022/05/06 07:39:31;;;;;;;4.45;4.05;;;23.60;99.90;;;;;;5053649;28;20070;-81
2022/05/06 07:41:56;;;;;;;4.65;3.72;;;25.90;99.90;;;;;;5053149;28;20021;-81
2022/05/06 07:44:22;;;;;;;5.13;3.85;;;25.60;99.90;;;;;;5051503;28;20021;-81
2022/05/06 07:46:48;;;;;;;4.10;3.70;;;26.30;99.90;;;;;;5052820;28;20455;-81
2022/05/06 07:49:14;;;;;;;4.40;3.60;;;30.30;99.90;;;;;;5052701;28;20537;-81
2022/05/06 07:51:39;;;;;;;3.60;3.30;;;29.70;99.90;;;;;;5053049;28;20028;-81
2022/05/06 07:54:05;;;;;;;4.22;3.38;;;27.70;99.90;;;;;;5052682;28;20077;-81
2022/05/06 07:56:30;;;;;;;3.75;3.35;;;26.80;99.90;;;;;;5052399;28;20017;-81
2022/05/06 07:58:56;;;;;;;3.78;3.38;;;26.90;99.90;;;;;;5052306;28;20033;-81
2022/05/06 08:06:52;;;;;;;4.35;3.38;;;26.60;99.90;;;;;;5032203;28;20056;-81
2022/05/06 08:09:17;;;;;;;3.78;2.92;;;27.20;99.90;;;;;;5032184;28;20097;-81
2022/05/06 08:11:43;;;;;;;4.07;3.42;;;28.60;99.90;;;;;;5014275;28;20137;-81
2022/05/06 08:14:09;;;;;;;3.65;3.10;;;27.70;99.90;;;;;;5031774;28;20067;-81
2022/05/06 08:16:34;;;;;;;4.43;3.28;;;27.30;99.90;;;;;;5031705;28;20508;-81
2022/05/06 08:19:00;;;;;;;3.28;2.97;;;28.30;99.90;;;;;;5031842;28;20057;-82
2022/05/06 08:21:25;;;;;;;4.65;3.38;;;28.90;99.90;;;;;;5031843;28;20049;-81
2022/05/06 08:23:52;;;;;;;3.47;3.17;;;28.80;99.90;;;;;;5031724;28;20069;-81
2022/05/06 08:26:21;;;;;;;4.10;3.20;;;28.80;99.90;;;;;;5046968;28;20017;-81
2022/05/06 08:28:46;;;;;;;5.93;3.28;;;28.60;99.90;;;;;;5051672;28;20036;-81
2022/05/06 08:31:12;;;;;;;3.15;2.85;;;28.60;99.90;;;;;;5051916;28;20021;-81
2022/05/06 08:33:37;;;;;;;3.30;2.92;;;28.20;99.90;;;;;;5051736;28;20036;-81
2022/05/06 08:36:07;;;;;;;3.03;2.72;;;27.80;99.90;;;;;;5052288;28;20487;-81
2022/05/06 08:38:32;;;;;;;4.00;2.50;;;28.00;99.90;;;;;;5052596;28;20072;-81
2022/05/06 08:41:00;;;;;;;3.53;2.55;;;28.90;99.90;;;;;;5052317;28;20509;-82
2022/05/06 08:43:26;;;;;;;2.70;2.25;;;29.00;99.90;;;;;;5051735;28;20033;-82
2022/05/06 08:50:50;;;;;;;2.50;2.30;;;30.70;99.90;;;;;;5051931;28;20079;-82
2022/05/06 08:51:47;;;;;;;3.72;2.65;;;32.10;99.90;;;;;;5051312;28;20642;-82
2022/05/06 08:54:12;;;;;;;3.72;2.83;;;35.70;99.90;;;;;;5051335;28;20051;-82
2022/05/06 08:56:38;;;;;;;3.80;3.40;;;31.60;99.90;;;;;;5051699;28;20028;-82
2022/05/06 08:59:03;;;;;;;3.72;3.42;;;28.20;99.90;;;;;;5051901;28;20494;-82
2022/05/06 09:01:29;;;;;;;3.70;3.40;;;26.80;99.90;;;;;;5033480;28;20022;-81
2022/05/06 09:03:56;;;;;;;3.95;3.38;;;26.10;99.90;;;;;;5031663;28;20076;-81
2022/05/06 09:06:27;;;;;;;4.13;3.38;;;24.80;99.90;;;;;;5031398;28;20013;-81
2022/05/06 09:08:57;;;;;;;4.28;3.35;;;24.50;99.90;;;;;;5031323;28;20021;-81
2022/05/06 09:14:17;;;;;;;3.58;3.20;;;31.70;99.90;;;;;;5032160;28;20055;-81
2022/05/06 09:16:44;;;;;;;3.78;3.33;;;35.70;99.90;;;;;;5031351;28;20038;-82
2022/05/06 09:19:21;;;;;;;3.50;3.20;;;35.30;99.90;;;;;;5031454;28;20022;-82
2022/05/06 09:22:13;;;;;;;2.88;2.67;;;32.80;99.90;;;;;;5014202;28;20033;-82
2022/05/06 09:24:39;;;;;;;3.28;2.97;;;32.20;99.90;;;;;;5033137;28;20029;-82
2022/05/06 09:27:10;;;;;;;3.42;3.13;;;30.60;99.90;;;;;;5050961;28;20048;-82
2022/05/06 09:29:37;;;;;;;2.88;2.55;;;33.80;99.90;;;;;;5051193;28;20064;-82
2022/05/06 09:32:25;;;;;;;3.25;2.95;;;36.80;99.90;;;;;;5052634;28;20017;-82
2022/05/06 09:35:18;;;;;;;3.92;3.30;;;36.20;99.90;;;;;;5054948;28;20023;-82
2022/05/06 09:37:48;;;;;;;5.25;3.72;;;38.30;99.90;;;;;;5051655;28;20036;-82
2022/05/06 09:40:16;;;;;;;5.05;3.83;;;36.60;99.90;;;;;;5038014;28;20483;-81
2022/05/06 09:42:44;;;;;;;4.00;3.60;;;35.80;99.90;;;;;;5046506;28;20041;-82
2022/05/06 09:45:12;;;;;;;3.50;3.20;;;32.60;99.90;;;;;;5054884;28;20021;-82
2022/05/06 09:47:40;;;;;;;4.55;3.80;;;33.60;99.90;;;;;;5054735;28;20506;-82
2022/05/06 09:50:07;;;;;;;6.43;3.80;;;32.90;99.90;;;;;;5054832;28;20009;-82
2022/05/06 09:52:34;;;;;;;3.75;3.45;;;33.70;99.90;;;;;;5054414;28;20028;-82
2022/05/06 09:55:01;;;;;;;3.90;3.55;;;32.60;99.90;;;;;;5036572;28;20101;-82
2022/05/06 09:57:29;;;;;;;4.00;3.63;;;33.30;99.90;;;;;;5054701;28;20119;-82
2022/05/06 09:59:54;;;;;;;3.90;3.55;;;32.60;99.90;;;;;;5054929;28;20020;-81
2022/05/06 10:02:20;;;;;;;4.50;3.70;;;31.90;99.90;;;;;;5054408;28;20029;-82
2022/05/06 10:04:49;;;;;;;4.47;4.07;;;31.70;99.90;;;;;;5054189;28;20057;-82
2022/05/06 10:07:16;;;;;;;3.47;3.20;;;30.80;99.90;;;;;;5054623;28;20460;-82
2022/05/06 10:10:07;;;;;;;3.53;3.10;;;34.00;99.90;;;;;;5054135;28;20032;-81
2022/05/06 10:12:54;;;;;;;3.50;3.20;;;33.70;99.90;;;;;;5054583;28;20044;-82
2022/05/06 10:15:25;;;;;;;7.15;5.45;;;33.60;99.90;;;;;;5053897;28;20079;-82
2022/05/06 10:17:55;;;;;;;6.05;5.30;;;32.50;99.90;;;;;;5054372;28;20013;-82
2022/05/06 10:20:36;;;;;;;;;;;34.50;99.90;;;;;;5054603;28;20484;-81
2022/05/06 10:23:07;;;;;;;6.22;4.20;;;34.50;99.90;;;;;;5054146;28;20344;-82
2022/05/06 10:25:42;;;;;;;8.57;5.55;;;32.20;99.90;;;;;;5027386;28;20095;-82
2022/05/06 10:34:07;;;;;;;;;;;37.70;99.90;;;;;;5034672;28;20056;-82
2022/05/06 10:36:42;;;;;;;8.00;6.63;;;37.30;99.90;;;;;;5016327;28;19909;-81
2022/05/06 10:39:29;;;;;;;7.63;6.85;;;38.70;99.90;;;;;;5034634;28;20059;-82
2022/05/06 10:42:11;;;;;;;8.48;7.00;;;37.50;99.90;;;;;;5034987;28;20013;-82
2022/05/06 10:44:39;;;;;;;8.43;7.50;;;37.80;99.90;;;;;;5034075;28;20036;-82
2022/05/06 10:47:14;;;;;;;8.48;7.38;;;36.10;99.90;;;;;;5034792;28;20061;-82
2022/05/06 10:49:39;;;;;;;8.88;7.97;;;37.70;99.90;;;;;;5034175;28;20025;-82
2022/05/06 10:52:14;;;;;;;7.95;7.25;;;36.60;99.90;;;;;;5035048;28;20099;-82
2022/05/06 10:54:49;;;;;;;8.57;7.68;;;36.00;99.90;;;;;;5034858;28;20018;-82
2022/05/06 10:57:17;;;;;;;9.15;7.82;;;34.50;99.90;;;;;;5020810;28;20068;-83
2022/05/06 11:00:02;;;;;;;8.02;7.22;;;33.90;99.90;;;;;;5040661;28;20018;-83
2022/05/06 11:02:38;;;;;;;7.53;6.70;;;32.60;99.90;;;;;;5038530;28;20037;-83
2022/05/06 11:05:10;;;;;;;31.98;7.75;;;30.40;99.90;;;;;;5038615;28;20095;-82
2022/05/06 11:07:41;;;;;;;8.00;6.63;;;29.40;99.90;;;;;;5024066;28;20033;-83
2022/05/06 11:10:14;;;;;;;7.05;5.95;;;28.40;99.90;;;;;;5041978;28;20025;-83
2022/05/06 11:12:41;;;;;;;9.63;6.82;;;27.90;99.90;;;;;;5031453;28;20084;-81
2022/05/06 11:15:31;;;;;;;6.30;5.70;;;28.20;99.90;;;;;;5039397;28;20057;-82
2022/05/06 11:17:59;;;;;;;6.07;5.47;;;27.90;99.90;;;;;;5038438;28;20381;-82
2022/05/06 11:20:34;;;;;;;7.67;4.90;;;27.90;99.90;;;;;;5020961;28;20032;-82
2022/05/06 11:23:13;;;;;;;6.72;5.60;;;27.20;99.90;;;;;;5038374;28;20152;-82
2022/05/06 11:25:46;;;;;;;9.65;5.70;;;27.30;99.90;;;;;;5033162;28;20037;-83
2022/05/06 11:28:14;;;;;;;7.13;6.43;;;27.70;99.90;;;;;;5028038;28;20085;-83
2022/05/06 11:30:46;;;;;;;6.80;6.10;;;27.30;99.90;;;;;;5048760;28;20404;-83
2022/05/06 11:33:27;;;;;;;8.68;6.57;;;27.40;99.90;;;;;;5049337;28;20469;-82
2022/05/06 11:36:01;;;;;;;10.73;6.97;;;27.60;99.90;;;;;;5038199;28;20100;-82
2022/05/06 11:38:35;;;;;;;8.15;6.82;;;26.90;99.90;;;;;;5038354;28;20033;-82
2022/05/06 11:41:11;;;;;;;7.93;6.95;;;27.10;99.90;;;;;;5018455;28;20026;-82
2022/05/06 11:43:38;;;;;;;9.07;7.85;;;26.30;99.90;;;;;;5005624;28;20500;-83
2022/05/06 11:48:49;;;;;;;7.85;7.05;;;26.60;99.90;;;;;;5026983;28;20036;-83
2022/05/06 11:51:38;;;;;;;9.15;8.25;;;27.10;99.90;;;;;;5029739;28;20010;-82
2022/05/06 11:54:05;;;;;;;11.30;9.43;;;26.50;99.90;;;;;;5017975;28;20053;-83
2022/05/06 11:56:33;;;;;;;10.95;8.50;;;26.40;99.90;;;;;;5017488;28;20025;-83
2022/05/06 11:58:59;;;;;;;11.85;9.60;;;26.70;99.90;;;;;;5018522;28;20086;-83
2022/05/06 12:01:30;;;;;;;10.40;8.95;;;26.30;99.90;;;;;;5001963;28;20033;-83
2022/05/06 12:04:09;;;;;;;9.65;8.63;;;26.40;99.90;;;;;;4985548;28;20501;-83
2022/05/06 12:06:41;;;;;;;11.07;8.98;;;26.00;99.90;;;;;;5001653;28;20030;-83
2022/05/06 12:09:08;;;;;;;12.85;9.73;;;25.90;99.90;;;;;;5000194;28;20485;-83
2022/05/06 12:11:33;;;;;;;11.52;9.40;;;25.70;99.90;;;;;;5017150;28;20101;-84
2022/05/06 12:14:08;;;;;;;10.18;8.32;;;26.30;99.90;;;;;;5018619;28;20123;-83
2022/05/06 12:16:34;;;;;;;12.40;9.80;;;26.50;99.90;;;;;;5033846;28;20029;-83
2022/05/06 12:19:00;;;;;;;11.10;9.82;;;25.80;99.90;;;;;;5036466;28;20096;-83
2022/05/06 12:21:27;;;;;;;12.85;8.70;;;26.00;99.90;;;;;;5036295;28;20060;-83
2022/05/06 12:23:58;;;;;;;14.30;10.18;;;26.40;99.90;;;;;;5018117;28;20105;-83
2022/05/06 12:26:38;;;;;;;10.43;8.77;;;26.30;99.90;;;;;;5022402;28;20045;-80
2022/05/06 12:29:18;;;;;;;11.88;8.88;;;26.30;99.90;;;;;;5008009;28;20493;-83
2022/05/06 12:31:44;;;;;;;13.05;10.10;;;26.40;99.90;;;;;;5020500;28;20022;-83
2022/05/06 12:34:09;;;;;;;12.40;10.02;;;26.30;99.90;;;;;;5013029;28;20028;-83
2022/05/06 12:36:36;;;;;;;14.20;9.27;;;26.30;99.90;;;;;;5004381;28;20082;-82
2022/05/06 12:39:17;;;;;;;11.50;9.88;;;26.20;99.90;;;;;;5001776;28;20041;-82
2022/05/06 12:41:43;;;;;;;13.68;10.50;;;26.40;99.90;;;;;;5018004;28;20041;-83
2022/05/06 12:44:25;;;;;;;11.82;10.63;;;26.40;99.90;;;;;;5026313;28;20022;-84
2022/05/06 12:46:51;;;;;;;11.63;10.38;;;26.40;99.90;;;;;;5008863;28;20032;-84
2022/05/06 12:52:04;;;;;;;13.57;11.00;;;25.80;99.90;;;;;;5030956;28;20041;-84
2022/05/06 12:54:31;;;;;;;14.70;10.27;;;25.90;99.90;;;;;;5026884;28;20038;-84
2022/05/06 12:56:57;;;;;;;16.30;12.38;;;26.20;99.90;;;;;;5032389;28;20025;-83
2022/05/06 12:59:23;;;;;;;13.98;12.15;;;25.80;99.90;;;;;;5031510;28;20014;-83
2022/05/06 13:01:50;;;;;;;15.32;11.05;;;26.00;99.90;;;;;;5026808;28;20088;-83
2022/05/06 13:04:16;;;;;;;13.23;10.75;;;26.20;99.90;;;;;;5016125;28;20026;-83
2022/05/06 13:06:42;;;;;;;14.57;11.80;;;26.10;99.90;;;;;;5023441;28;20499;-82
2022/05/06 13:09:08;;;;;;;13.38;11.75;;;25.80;99.90;;;;;;5021470;28;20081;-83
2022/05/06 13:11:34;;;;;;;15.98;12.07;;;25.80;99.90;;;;;;5003517;28;20390;-84
2022/05/06 13:14:00;;;;;;;13.95;10.95;;;25.60;99.90;;;;;;5019104;28;20104;-84
2022/05/06 13:16:26;;;;;;;12.30;10.70;;;25.90;99.90;;;;;;5009393;28;20032;-84
2022/05/06 13:18:53;;;;;;;15.55;11.38;;;25.80;99.90;;;;;;5040015;28;20053;-84
2022/05/06 13:21:19;;;;;;;16.25;11.55;;;25.40;99.90;;;;;;5021959;28;20409;-83
2022/05/06 13:23:45;;;;;;;15.50;11.10;;;25.30;99.90;;;;;;5021761;28;20040;-84
2022/05/06 13:26:11;;;;;;;16.00;11.77;;;25.50;99.90;;;;;;5022968;28;20014;-84
2022/05/06 13:28:37;;;;;;;13.50;10.70;;;25.50;99.90;;;;;;5037724;28;20022;-84